< < Back
Terminal Aerodrome Forecast


Current Version              Previous Versions:   1  2  3  4  5  6  7  8  9  

Terminal Aerodrome Forecast

355
FTUS42 KTAE 231100
TAFTLH
TAF
KTLH 231122Z 2312/2412 00000KT 1SM BR BKN002
      TEMPO 2312/2313 1/2SM FG BKN002
     FM231400 33005KT P6SM SCT040
     FM240800 00000KT 1SM BR BKN008=



Latest METAR

220
SAUS80 KWBC 231400
MTRTLH
METAR KTLH 231353Z 36004KT 10SM BKN004 21/16 A2996 RMK AO2 CIG 003V007
SLP144 T02060161 $


USA.gov is the U.S. government's official web portal to all federal, state and local government web resources and services.